| time (UTC) | temp C | wind direction | speed KPH | gust KPH | rain 1hr cm | rain 24hr cm | rain mn cm | humidity % | barometer mb |
| 20260505140644 | 10 | 248 | 0.0 | 3.2 | 0.00 | 0.00 | 0.00 | 1013.7 | |
| 20260505124944 | 10 | 245 | 3.2 | 12.9 | 0.00 | 0.00 | 0.00 | 1012.9 | |
| 20260505124854 | 10 | 269 | 6.4 | 14.5 | 0.00 | 0.00 | 0.00 | 1012.9 | |
| 20260505124244 | 10 | 277 | 4.8 | 14.5 | 0.00 | 0.00 | 0.00 | 1012.9 | |
| 20260505123854 | 10 | 239 | 8.0 | 12.9 | 0.00 | 0.00 | 0.00 | 1012.9 | |
| 20260505123544 | 10 | 239 | 8.0 | 12.9 | 0.00 | 0.00 | 0.00 | 1012.9 | |
| 20260505122845 | 10 | 273 | 4.8 | 9.7 | 0.00 | 0.00 | 0.00 | 1012.9 | |
| 20260505122144 | 10 | 283 | 1.6 | 8.0 | 0.00 | 0.00 | 0.00 | 1012.8 | |
| 20260505121855 | 10 | 273 | 3.2 | 11.3 | 0.00 | 0.00 | 0.00 | 1012.8 | |
| 20260505121445 | 10 | 273 | 3.2 | 11.3 | 0.00 | 0.00 | 0.00 | 1012.8 | |
| 20260505120854 | 10 | 280 | 3.2 | 12.9 | 0.00 | 0.00 | 0.00 | 1012.8 | |
| 20260505120744 | 10 | 280 | 3.2 | 12.9 | 0.00 | 0.00 | 0.00 | 1012.8 | |
| 20260505120044 | 10 | 284 | 1.6 | 4.8 | 0.00 | 0.00 | 0.00 | 1012.8 | |
| 20260505115907 | 10 | 301 | 3.2 | 9.7 | 0.00 | 0.00 | 0.00 | 1012.8 | |
| 20260505115344 | 10 | 276 | 3.2 | 11.3 | 0.00 | 0.00 | 0.00 | 1012.7 | |
| 20260505114854 | 10 | 284 | 4.8 | 9.7 | 0.00 | 0.00 | 0.00 | 1012.7 | |
| 20260505114644 | 10 | 284 | 4.8 | 9.7 | 0.00 | 0.00 | 0.00 | 1012.7 | |
| 20260505113944 | 11 | 278 | 3.2 | 11.3 | 0.00 | 0.00 | 0.00 | 1012.7 | |
| 20260505113854 | 11 | 266 | 4.8 | 14.5 | 0.00 | 0.00 | 0.00 | 1012.8 | |
| 20260505113245 | 11 | 277 | 4.8 | 12.9 | 0.00 | 0.00 | 0.00 | 1012.7 | |
| 20260505112854 | 11 | 307 | 1.6 | 6.4 | 0.00 | 0.00 | 0.00 | 1012.8 | |
| 20260505112544 | 11 | 307 | 1.6 | 6.4 | 0.00 | 0.00 | 0.00 | 1012.8 | |
| 20260505111844 | 11 | 260 | 3.2 | 9.7 | 0.00 | 0.00 | 0.00 | 1012.6 | |
| 20260505111143 | 11 | 255 | 1.6 | 9.7 | 0.00 | 0.00 | 0.00 | 1012.8 | |
| 20260505110853 | 11 | 285 | 3.2 | 9.7 | 0.00 | 0.00 | 0.00 | 1012.7 | |
| 20260505110444 | 11 | 285 | 3.2 | 9.7 | 0.00 | 0.00 | 0.00 | 1012.7 | |
| 20260505101853 | 11 | 284 | 1.6 | 9.7 | 0.00 | 0.00 | 0.00 | 1012.3 | |
| 20260505101546 | 11 | 284 | 1.6 | 9.7 | 0.00 | 0.00 | 0.00 | 1012.3 | |
| 20260505100844 | 11 | 266 | 1.6 | 9.7 | 0.00 | 0.00 | 0.00 | 1012.5 | |
| 20260505100146 | 11 | 290 | 3.2 | 11.3 | 0.00 | 0.00 | 0.00 | 1012.4 | |
| 20260505095856 | 11 | 264 | 3.2 | 12.9 | 0.00 | 0.00 | 0.00 | 1012.4 | |
| 20260505095446 | 11 | 264 | 3.2 | 12.9 | 0.00 | 0.00 | 0.00 | 1012.4 | |
| 20260505094854 | 11 | 266 | 1.6 | 9.7 | 0.00 | 0.00 | 0.00 | 1012.2 | |
| 20260505094743 | 11 | 266 | 1.6 | 9.7 | 0.00 | 0.00 | 0.00 | 1012.2 | |
| 20260505094043 | 11 | 255 | 3.2 | 12.9 | 0.00 | 0.00 | 0.00 | 1012.1 | |
| 20260505093854 | 11 | 284 | 3.2 | 11.3 | 0.00 | 0.00 | 0.00 | 1012.1 | |
| 20260505093343 | 11 | 274 | 3.2 | 12.9 | 0.00 | 0.00 | 0.00 | 1012.0 | |
| 20260505092853 | 11 | 315 | 1.6 | 9.7 | 0.00 | 0.00 | 0.00 | 1012.1 | |
| 20260505092644 | 11 | 315 | 1.6 | 9.7 | 0.00 | 0.00 | 0.00 | 1012.1 | |
| 20260505091945 | 11 | 307 | 1.6 | 12.9 | 0.00 | 0.00 | 0.00 | 1012.1 | |
| 20260505091854 | 11 | 293 | 1.6 | 6.4 | 0.00 | 0.00 | 0.00 | 1012.1 | |
| 20260505091244 | 11 | 276 | 4.8 | 12.9 | 0.00 | 0.00 | 0.00 | 1012.1 | |
| 20260505090853 | 11 | 257 | 3.2 | 11.3 | 0.00 | 0.00 | 0.00 | 1012.0 | |
| 20260505090618 | 11 | 257 | 3.2 | 11.3 | 0.00 | 0.00 | 0.00 | 1012.0 | |
| 20260505090543 | 11 | 257 | 3.2 | 11.3 | 0.00 | 0.00 | 0.00 | 1012.0 | |
| 20260505085844 | 11 | 290 | 3.2 | 9.7 | 0.00 | 0.00 | 0.00 | 1012.1 | |
| 20260505085143 | 11 | 280 | 4.8 | 11.3 | 0.00 | 0.00 | 0.00 | 1012.0 | |
| 20260505084953 | 11 | 266 | 4.8 | 14.5 | 0.00 | 0.00 | 0.00 | 1012.1 | |
| 20260505084854 | 11 | 266 | 4.8 | 14.5 | 0.00 | 0.00 | 0.00 | 1012.1 | |
| 20260505084445 | 11 | 266 | 4.8 | 14.5 | 0.00 | 0.00 | 0.00 | 1012.1 | |
| 20260505083853 | 11 | 285 | 0.0 | 6.4 | 0.00 | 0.00 | 0.00 | 1012.1 | |
| 20260505083749 | 11 | 285 | 0.0 | 6.4 | 0.00 | 0.00 | 0.00 | 1012.1 | |
| 20260505083043 | 11 | 291 | 3.2 | 12.9 | 0.00 | 0.00 | 0.00 | 1012.1 | |
| 20260505082930 | 10 | 290 | 1.6 | 9.7 | 0.00 | 0.00 | 0.00 | 1012.1 | |
| 20260505082855 | 10 | 290 | 1.6 | 9.7 | 0.00 | 0.00 | 0.00 | 1012.1 | |
| 20260505082343 | 10 | 288 | 1.6 | 12.9 | 0.00 | 0.00 | 0.00 | 1012.0 | |
| 20260505081853 | 10 | 270 | 0.0 | 4.8 | 0.00 | 0.00 | 0.00 | 1012.1 | |
| 20260505081645 | 10 | 270 | 0.0 | 4.8 | 0.00 | 0.00 | 0.00 | 1012.1 | |
| 20260505080945 | 10 | 297 | 1.6 | 6.4 | 0.00 | 0.00 | 0.00 | 1012.2 | |
| 20260505080853 | 11 | 278 | 1.6 | 9.7 | 0.00 | 0.00 | 0.00 | 1012.2 | |
| 20260505080245 | 11 | 257 | 0.0 | 4.8 | 0.00 | 0.00 | 0.00 | 1012.2 | |
| 20260505075935 | 11 | 284 | 1.6 | 11.3 | 0.00 | 0.00 | 0.00 | 1012.2 | |
| 20260505075853 | 11 | 284 | 1.6 | 11.3 | 0.00 | 0.00 | 0.00 | 1012.2 | |
| 20260505075543 | 11 | 284 | 1.6 | 11.3 | 0.00 | 0.00 | 0.00 | 1012.2 | |
| 20260505074843 | 11 | 250 | 1.6 | 6.4 | 0.00 | 0.00 | 0.00 | 1012.1 | |
| 20260505074144 | 11 | 290 | 1.6 | 8.0 | 0.00 | 0.00 | 0.00 | 1012.2 | |
| 20260505073856 | 11 | 283 | 1.6 | 6.4 | 0.00 | 0.00 | 0.00 | 1012.1 | |
| 20260505073445 | 11 | 283 | 1.6 | 6.4 | 0.00 | 0.00 | 0.00 | 1012.1 | |
| 20260505072944 | 11 | 283 | 0.0 | 9.7 | 0.00 | 0.00 | 0.00 | 1012.0 | |
| 20260505072853 | 11 | 283 | 0.0 | 9.7 | 0.00 | 0.00 | 0.00 | 1012.0 | |
| 20260505072744 | 11 | 283 | 0.0 | 9.7 | 0.00 | 0.00 | 0.00 | 1012.0 | |
| 20260505072045 | 11 | 273 | 0.0 | 8.0 | 0.00 | 0.00 | 0.00 | 1012.0 | |
| 20260505071854 | 11 | 293 | 0.0 | 4.8 | 0.00 | 0.00 | 0.00 | 1011.9 | |
| 20260505071344 | 11 | 0 | 0.0 | 0.0 | 0.00 | 0.00 | 0.00 | 1011.8 | |
| 20260505070853 | 11 | 0 | 0.0 | 0.0 | 0.00 | 0.00 | 0.00 | 1011.8 | |
| 20260505070644 | 11 | 0 | 0.0 | 0.0 | 0.00 | 0.00 | 0.00 | 1011.8 | |
| 20260505070541 | 11 | 283 | 1.6 | 11.3 | 0.00 | 0.00 | 0.00 | 1011.7 | |
| 20260505065943 | 11 | 283 | 1.6 | 11.3 | 0.00 | 0.00 | 0.00 | 1011.7 | |
| 20260505065853 | 11 | 255 | 0.0 | 3.2 | 0.00 | 0.00 | 0.00 | 1011.7 | |
| 20260505065245 | 11 | 0 | 0.0 | 0.0 | 0.00 | 0.00 | 0.00 | 1011.6 | |
| 20260505065043 | 11 | 288 | 1.6 | 8.0 | 0.00 | 0.00 | 0.00 | 1011.6 | |
| 20260505064936 | 11 | 288 | 1.6 | 8.0 | 0.00 | 0.00 | 0.00 | 1011.6 | |
| 20260505064854 | 11 | 288 | 1.6 | 8.0 | 0.00 | 0.00 | 0.00 | 1011.6 | |
| 20260505064615 | 11 | 288 | 1.6 | 8.0 | 0.00 | 0.00 | 0.00 | 1011.6 | |
| 20260505064544 | 11 | 288 | 1.6 | 8.0 | 0.00 | 0.00 | 0.00 | 1011.6 | |
| 20260505063843 | 11 | 283 | 0.0 | 4.8 | 0.00 | 0.00 | 0.00 | 1011.6 | |
| 20260505063143 | 11 | 297 | 0.0 | 8.0 | 0.00 | 0.00 | 0.00 | 1011.6 | |
| 20260505062853 | 11 | 0 | 0.0 | 0.0 | 0.00 | 0.00 | 0.00 | 1011.6 | |
| 20260505062443 | 11 | 0 | 0.0 | 0.0 | 0.00 | 0.00 | 0.00 | 1011.6 | |
| 20260505061854 | 12 | 291 | 0.0 | 4.8 | 0.00 | 0.00 | 0.00 | 1011.5 | |
| 20260505061743 | 12 | 291 | 0.0 | 4.8 | 0.00 | 0.00 | 0.00 | 1011.5 | |
| 20260505061043 | 12 | 280 | 1.6 | 9.7 | 0.00 | 0.00 | 0.00 | 1011.4 | |
| 20260505060853 | 12 | 276 | 1.6 | 4.8 | 0.00 | 0.00 | 0.00 | 1011.3 | |
| 20260505060343 | 12 | 293 | 1.6 | 8.0 | 0.00 | 0.00 | 0.00 | 1011.4 | |
| 20260505055853 | 12 | 266 | 0.0 | 4.8 | 0.00 | 0.00 | 0.00 | 1011.4 | |
| 20260505055644 | 12 | 266 | 0.0 | 4.8 | 0.00 | 0.00 | 0.00 | 1011.4 | |
| 20260505054943 | 12 | 297 | 1.6 | 11.3 | 0.00 | 0.00 | 0.00 | 1011.3 | |
| 20260505054853 | 12 | 0 | 0.0 | 0.0 | 0.00 | 0.00 | 0.00 | 1011.4 | |
| 20260505054316 | 12 | 269 | 1.6 | 11.3 | 0.00 | 0.00 | 0.00 | 1011.4 | |
| 20260505054243 | 12 | 269 | 1.6 | 11.3 | 0.00 | 0.00 | 0.00 | 1011.4 | |
| 20260505053853 | 12 | 285 | 3.2 | 9.7 | 0.00 | 0.00 | 0.00 | 1011.3 | |
| 20260505053544 | 12 | 285 | 3.2 | 9.7 | 0.00 | 0.00 | 0.00 | 1011.3 | |
| 20260505052843 | 12 | 290 | 0.0 | 4.8 | 0.00 | 0.00 | 0.00 | 1011.3 | |
| 20260505052144 | 13 | 266 | 1.6 | 4.8 | 0.00 | 0.00 | 0.00 | 1011.4 | |
| 20260505051853 | 13 | 284 | 1.6 | 6.4 | 0.00 | 0.00 | 0.00 | 1011.4 | |
| 20260505051444 | 13 | 284 | 1.6 | 6.4 | 0.00 | 0.00 | 0.00 | 1011.4 | |
| 20260505050853 | 13 | 246 | 0.0 | 3.2 | 0.00 | 0.00 | 0.00 | 1011.3 | |
| 20260505050744 | 13 | 246 | 0.0 | 3.2 | 0.00 | 0.00 | 0.00 | 1011.3 | |
| 20260505041143 | 15 | 215 | 0.0 | 6.4 | 0.00 | 0.00 | 0.00 | 1011.2 | |
| 20260505040855 | 15 | 211 | 3.2 | 11.3 | 0.00 | 0.00 | 0.00 | 1011.2 | |
| 20260505040443 | 15 | 211 | 3.2 | 11.3 | 0.00 | 0.00 | 0.00 | 1011.2 | |
| 20260505035853 | 16 | 214 | 0.0 | 4.8 | 0.00 | 0.00 | 0.00 | 1011.1 | |
| 20260505035744 | 16 | 214 | 0.0 | 4.8 | 0.00 | 0.00 | 0.00 | 1011.1 | |
| 20260505035043 | 16 | 259 | 1.6 | 6.4 | 0.00 | 0.00 | 0.00 | 1011.1 | |
| 20260505034853 | 16 | 297 | 1.6 | 11.3 | 0.00 | 0.00 | 0.00 | 1010.9 | |
| 20260505034344 | 16 | 263 | 4.8 | 12.9 | 0.00 | 0.00 | 0.00 | 1011.2 | |
| 20260505033853 | 17 | 294 | 1.6 | 6.4 | 0.00 | 0.00 | 0.00 | 1011.1 | |
| 20260505033643 | 17 | 294 | 1.6 | 6.4 | 0.00 | 0.00 | 0.00 | 1011.1 | |
| 20260505032943 | 17 | 270 | 3.2 | 9.7 | 0.00 | 0.00 | 0.00 | 1010.9 | |
| 20260505032853 | 17 | 291 | 3.2 | 11.3 | 0.00 | 0.00 | 0.00 | 1011.1 | |
| 20260505032243 | 17 | 274 | 4.8 | 12.9 | 0.00 | 0.00 | 0.00 | 1010.9 | |
| 20260505031854 | 17 | 297 | 3.2 | 11.3 | 0.00 | 0.00 | 0.00 | 1010.9 | |
| 20260505031543 | 17 | 297 | 3.2 | 11.3 | 0.00 | 0.00 | 0.00 | 1010.9 | |
| 20260505030844 | 18 | 316 | 1.6 | 6.4 | 0.00 | 0.00 | 0.00 | 1010.9 | |
| 20260505030146 | 18 | 285 | 3.2 | 6.4 | 0.00 | 0.00 | 0.00 | 1010.9 | |
| 20260505025854 | 18 | 271 | 0.0 | 4.8 | 0.00 | 0.00 | 0.00 | 1010.8 | |
| 20260505025443 | 18 | 271 | 0.0 | 4.8 | 0.00 | 0.00 | 0.00 | 1010.8 | |
| 20260505024853 | 19 | 270 | 1.6 | 8.0 | 0.00 | 0.00 | 0.00 | 1010.7 | |
| 20260505024743 | 19 | 270 | 1.6 | 8.0 | 0.00 | 0.00 | 0.00 | 1010.7 | |
| 20260505024043 | 20 | 283 | 3.2 | 9.7 | 0.00 | 0.00 | 0.00 | 1010.7 | |
| 20260505023855 | 20 | 260 | 1.6 | 8.0 | 0.00 | 0.00 | 0.00 | 1010.7 | |
| 20260505023344 | 20 | 277 | 3.2 | 12.9 | 0.00 | 0.00 | 0.00 | 1010.7 | |
| 20260505022853 | 20 | 322 | 1.6 | 8.0 | 0.00 | 0.00 | 0.00 | 1010.8 | |
| 20260505022644 | 20 | 322 | 1.6 | 8.0 | 0.00 | 0.00 | 0.00 | 1010.8 | |
| 20260505021944 | 21 | 235 | 0.0 | 6.4 | 0.00 | 0.00 | 0.00 | 1010.8 | |
| 20260505021853 | 21 | 250 | 0.0 | 4.8 | 0.00 | 0.00 | 0.00 | 1010.8 | |
| 20260505021243 | 21 | 281 | 1.6 | 11.3 | 0.00 | 0.00 | 0.00 | 1010.7 | |
| 20260505020853 | 21 | 214 | 0.0 | 1.6 | 0.00 | 0.00 | 0.00 | 1010.8 | |
| 20260505020545 | 21 | 214 | 0.0 | 1.6 | 0.00 | 0.00 | 0.00 | 1010.8 | |
| 20260505015843 | 22 | 269 | 1.6 | 8.0 | 0.00 | 0.00 | 0.00 | 1010.8 | |
| 20260505015145 | 22 | 207 | 1.6 | 6.4 | 0.00 | 0.00 | 0.00 | 1010.8 | |
| 20260505014853 | 22 | 180 | 0.0 | 4.8 | 0.00 | 0.00 | 0.00 | 1010.8 | |
| 20260505014444 | 22 | 180 | 0.0 | 4.8 | 0.00 | 0.00 | 0.00 | 1010.8 | |
| 20260505013853 | 23 | 242 | 1.6 | 6.4 | 0.00 | 0.00 | 0.00 | 1011.1 | |
| 20260505013744 | 23 | 242 | 1.6 | 6.4 | 0.00 | 0.00 | 0.00 | 1011.1 | |
| 20260505013044 | 23 | 235 | 1.6 | 8.0 | 0.00 | 0.00 | 0.00 | 1011.1 | |
| 20260505012853 | 23 | 267 | 1.6 | 4.8 | 0.00 | 0.00 | 0.00 | 1010.9 | |
| 20260505012343 | 23 | 262 | 0.0 | 1.6 | 0.00 | 0.00 | 0.00 | 1011.1 | |
| 20260505011852 | 23 | 190 | 1.6 | 6.4 | 0.00 | 0.00 | 0.00 | 1011.2 | |
| 20260505011644 | 23 | 190 | 1.6 | 6.4 | 0.00 | 0.00 | 0.00 | 1011.2 | |
| 20260505010943 | 23 | 283 | 1.6 | 6.4 | 0.00 | 0.00 | 0.00 | 1011.3 | |
| 20260505010852 | 24 | 212 | 0.0 | 6.4 | 0.00 | 0.00 | 0.00 | 1011.3 | |
| 20260505010243 | 24 | 246 | 1.6 | 8.0 | 0.00 | 0.00 | 0.00 | 1011.4 | |
| 20260505005853 | 24 | 322 | 1.6 | 11.3 | 0.00 | 0.00 | 0.00 | 1011.5 | |
| 20260505005542 | 24 | 322 | 1.6 | 11.3 | 0.00 | 0.00 | 0.00 | 1011.5 | |
| 20260505004843 | 25 | 249 | 1.6 | 6.4 | 0.00 | 0.00 | 0.00 | 1011.4 | |
| 20260505004143 | 25 | 231 | 3.2 | 8.0 | 0.00 | 0.00 | 0.00 | 1011.5 | |
| 20260505003853 | 25 | 160 | 1.6 | 8.0 | 0.00 | 0.00 | 0.00 | 1011.4 | |
| 20260505003443 | 25 | 160 | 1.6 | 8.0 | 0.00 | 0.00 | 0.00 | 1011.4 | |
| 20260505002853 | 25 | 270 | 4.8 | 12.9 | 0.00 | 0.00 | 0.00 | 1011.5 | |
| 20260505002742 | 25 | 270 | 4.8 | 12.9 | 0.00 | 0.00 | 0.00 | 1011.5 | |
| 20260505002043 | 25 | 288 | 3.2 | 9.7 | 0.00 | 0.00 | 0.00 | 1011.4 | |
| 20260505001853 | 25 | 277 | 4.8 | 9.7 | 0.00 | 0.00 | 0.00 | 1011.4 | |
| 20260505001344 | 25 | 269 | 3.2 | 9.7 | 0.00 | 0.00 | 0.00 | 1011.4 | |
| 20260505000843 | 25 | 214 | 3.2 | 9.7 | 0.00 | 0.00 | 0.00 | 1011.5 | |
| 20260505000145 | 26 | 293 | 1.6 | 8.0 | 0.00 | 0.00 | 0.00 | 1011.6 | |
| 20260504235852 | 26 | 257 | 1.6 | 6.4 | 0.00 | 0.00 | 0.00 | 1011.6 | |
| 20260504235443 | 26 | 257 | 1.6 | 6.4 | 0.00 | 0.00 | 0.00 | 1011.6 | |
| 20260504234853 | 26 | 239 | 3.2 | 11.3 | 0.00 | 0.00 | 0.00 | 1011.6 | |
| 20260504234743 | 26 | 239 | 3.2 | 11.3 | 0.00 | 0.00 | 0.00 | 1011.6 | |
| 20260504234042 | 26 | 239 | 1.6 | 11.3 | 0.00 | 0.00 | 0.00 | 1011.5 | |
| 20260504233852 | 26 | 183 | 4.8 | 11.3 | 0.00 | 0.00 | 0.00 | 1011.6 | |
| 20260504233343 | 27 | 259 | 1.6 | 14.5 | 0.00 | 0.00 | 0.00 | 1011.4 | |
| 20260504232853 | 27 | 260 | 1.6 | 6.4 | 0.00 | 0.00 | 0.00 | 1011.5 | |
| 20260504232647 | 27 | 260 | 1.6 | 6.4 | 0.00 | 0.00 | 0.00 | 1011.5 | |
| 20260504231943 | 26 | 166 | 3.2 | 11.3 | 0.00 | 0.00 | 0.00 | 1011.5 | |
| 20260504231852 | 26 | 240 | 1.6 | 11.3 | 0.00 | 0.00 | 0.00 | 1011.5 | |
| 20260504231243 | 26 | 228 | 1.6 | 9.7 | 0.00 | 0.00 | 0.00 | 1011.6 | |
| 20260504230855 | 26 | 294 | 6.4 | 17.7 | 0.00 | 0.00 | 0.00 | 1011.6 | |
| 20260504230542 | 26 | 294 | 6.4 | 17.7 | 0.00 | 0.00 | 0.00 | 1011.6 | |
| 20260504225842 | 26 | 226 | 3.2 | 12.9 | 0.00 | 0.00 | 0.00 | 1011.6 | |
| 20260504225142 | 26 | 200 | 1.6 | 12.9 | 0.00 | 0.00 | 0.00 | 1011.7 | |
| 20260504224852 | 26 | 252 | 1.6 | 8.0 | 0.00 | 0.00 | 0.00 | 1011.8 | |
| 20260504224442 | 26 | 252 | 1.6 | 8.0 | 0.00 | 0.00 | 0.00 | 1011.8 | |
| 20260504223854 | 26 | 277 | 3.2 | 12.9 | 0.00 | 0.00 | 0.00 | 1011.8 | |
| 20260504223744 | 26 | 277 | 3.2 | 12.9 | 0.00 | 0.00 | 0.00 | 1011.8 | |
| 20260504223044 | 26 | 290 | 3.2 | 12.9 | 0.00 | 0.00 | 0.00 | 1011.8 | |
| 20260504222853 | 26 | 219 | 3.2 | 11.3 | 0.00 | 0.00 | 0.00 | 1011.9 | |
| 20260504222344 | 26 | 281 | 4.8 | 12.9 | 0.00 | 0.00 | 0.00 | 1011.9 | |
| 20260504221852 | 26 | 231 | 0.0 | 3.2 | 0.00 | 0.00 | 0.00 | 1011.8 | |
| 20260504221643 | 26 | 231 | 0.0 | 3.2 | 0.00 | 0.00 | 0.00 | 1011.8 | |
| 20260504220943 | 26 | 233 | 1.6 | 9.7 | 0.00 | 0.00 | 0.00 | 1011.9 | |
| 20260504220852 | 26 | 276 | 3.2 | 8.0 | 0.00 | 0.00 | 0.00 | 1011.8 | |
| 20260504220243 | 26 | 267 | 1.6 | 6.4 | 0.00 | 0.00 | 0.00 | 1011.9 | |
| 20260504215853 | 26 | 201 | 1.6 | 9.7 | 0.00 | 0.00 | 0.00 | 1011.8 | |
| 20260504215543 | 26 | 201 | 1.6 | 9.7 | 0.00 | 0.00 | 0.00 | 1011.8 | |
| 20260504214842 | 25 | 218 | 4.8 | 9.7 | 0.00 | 0.00 | 0.00 | 1012.0 | |
| 20260504214143 | 26 | 278 | 3.2 | 12.9 | 0.00 | 0.00 | 0.00 | 1012.0 | |
| 20260504213852 | 25 | 312 | 3.2 | 11.3 | 0.00 | 0.00 | 0.00 | 1012.0 | |
| 20260504213442 | 25 | 312 | 3.2 | 11.3 | 0.00 | 0.00 | 0.00 | 1012.0 | |
| 20260504212854 | 25 | 212 | 4.8 | 12.9 | 0.00 | 0.00 | 0.00 | 1012.0 | |
| 20260504212743 | 25 | 212 | 4.8 | 12.9 | 0.00 | 0.00 | 0.00 | 1012.0 | |
| 20260504212042 | 25 | 228 | 3.2 | 12.9 | 0.00 | 0.00 | 0.00 | 1012.0 | |
| 20260504211853 | 25 | 217 | 4.8 | 14.5 | 0.00 | 0.00 | 0.00 | 1011.9 | |
| 20260504211342 | 25 | 207 | 3.2 | 8.0 | 0.00 | 0.00 | 0.00 | 1011.8 | |
| 20260504210853 | 25 | 332 | 1.6 | 9.7 | 0.00 | 0.00 | 0.00 | 1011.9 | |
| 20260504210643 | 25 | 332 | 1.6 | 9.7 | 0.00 | 0.00 | 0.00 | 1011.9 | |
| 20260504205942 | 25 | 271 | 6.4 | 17.7 | 0.00 | 0.00 | 0.00 | 1011.8 | |
| 20260504205855 | 25 | 205 | 4.8 | 14.5 | 0.00 | 0.00 | 0.00 | 1011.9 | |
| 20260504205243 | 25 | 293 | 4.8 | 12.9 | 0.00 | 0.00 | 0.00 | 1012.0 | |
| 20260504204853 | 25 | 269 | 4.8 | 12.9 | 0.00 | 0.00 | 0.00 | 1011.8 | |
| 20260504204618 | 25 | 269 | 4.8 | 12.9 | 0.00 | 0.00 | 0.00 | 1011.8 | |
| 20260504204542 | 25 | 269 | 4.8 | 12.9 | 0.00 | 0.00 | 0.00 | 1011.8 | |
| 20260504203842 | 24 | 280 | 4.8 | 14.5 | 0.00 | 0.00 | 0.00 | 1011.7 | |
| 20260504203142 | 24 | 203 | 3.2 | 14.5 | 0.00 | 0.00 | 0.00 | 1011.8 | |
| 20260504202852 | 25 | 280 | 3.2 | 12.9 | 0.00 | 0.00 | 0.00 | 1011.7 | |
| 20260504202442 | 25 | 280 | 3.2 | 12.9 | 0.00 | 0.00 | 0.00 | 1011.7 | |
| 20260504201853 | 25 | 316 | 3.2 | 11.3 | 0.00 | 0.00 | 0.00 | 1011.7 | |
| 20260504201742 | 25 | 316 | 3.2 | 11.3 | 0.00 | 0.00 | 0.00 | 1011.7 | |
| 20260504201042 | 23 | 267 | 3.2 | 8.0 | 0.00 | 0.00 | 0.00 | 1011.6 | |
| 20260504200852 | 23 | 264 | 3.2 | 11.3 | 0.00 | 0.00 | 0.00 | 1011.7 | |
| 20260504200342 | 23 | 215 | 3.2 | 11.3 | 0.00 | 0.00 | 0.00 | 1011.7 | |
| 20260504195852 | 23 | 255 | 4.8 | 16.1 | 0.00 | 0.00 | 0.00 | 1011.6 | |
| 20260504195642 | 23 | 255 | 4.8 | 16.1 | 0.00 | 0.00 | 0.00 | 1011.6 | |
| 20260504194942 | 24 | 214 | 3.2 | 12.9 | 0.00 | 0.00 | 0.00 | 1011.6 | |
| 20260504194852 | 25 | 273 | 4.8 | 16.1 | 0.00 | 0.00 | 0.00 | 1011.5 | |
| 20260504194242 | 24 | 269 | 3.2 | 9.7 | 0.00 | 0.00 | 0.00 | 1011.6 | |
| 20260504193852 | 24 | 290 | 4.8 | 12.9 | 0.00 | 0.00 | 0.00 | 1011.6 | |
| 20260504193542 | 24 | 290 | 4.8 | 12.9 | 0.00 | 0.00 | 0.00 | 1011.6 | |
| 20260504192842 | 24 | 253 | 3.2 | 8.0 | 0.00 | 0.00 | 0.00 | 1011.7 | |
| 20260504192143 | 24 | 242 | 3.2 | 11.3 | 0.00 | 0.00 | 0.00 | 1011.6 | |
| 20260504191852 | 23 | 274 | 3.2 | 9.7 | 0.00 | 0.00 | 0.00 | 1011.6 | |
| 20260504191442 | 23 | 274 | 3.2 | 9.7 | 0.00 | 0.00 | 0.00 | 1011.6 | |
| 20260504190852 | 23 | 228 | 3.2 | 9.7 | 0.00 | 0.00 | 0.00 | 1011.8 | |
| 20260504190742 | 23 | 228 | 3.2 | 9.7 | 0.00 | 0.00 | 0.00 | 1011.8 | |
| 20260504190043 | 23 | 195 | 3.2 | 11.3 | 0.00 | 0.00 | 0.00 | 1011.5 | |
| 20260504185852 | 23 | 276 | 1.6 | 12.9 | 0.00 | 0.00 | 0.00 | 1011.6 | |
| 20260504185342 | 22 | 257 | 3.2 | 8.0 | 0.00 | 0.00 | 0.00 | 1011.6 | |
| 20260504184856 | 22 | 260 | 3.2 | 11.3 | 0.00 | 0.00 | 0.00 | 1011.5 | |
| 20260504184642 | 22 | 260 | 3.2 | 11.3 | 0.00 | 0.00 | 0.00 | 1011.5 | |
| 20260504183942 | 22 | 287 | 1.6 | 8.0 | 0.00 | 0.00 | 0.00 | 1011.5 | |
| 20260504183852 | 21 | 270 | 1.6 | 6.4 | 0.00 | 0.00 | 0.00 | 1011.5 | |
| 20260504183242 | 21 | 283 | 1.6 | 8.0 | 0.00 | 0.00 | 0.00 | 1011.5 | |
| 20260504182852 | 21 | 284 | 1.6 | 6.4 | 0.00 | 0.00 | 0.00 | 1011.4 | |
| 20260504182543 | 21 | 284 | 1.6 | 6.4 | 0.00 | 0.00 | 0.00 | 1011.4 | |
| 20260504181843 | 21 | 291 | 3.2 | 9.7 | 0.00 | 0.00 | 0.00 | 1011.5 | |
| 20260504181141 | 21 | 197 | 0.0 | 3.2 | 0.00 | 0.00 | 0.00 | 1011.5 | |
| 20260504180851 | 21 | 215 | 1.6 | 8.0 | 0.00 | 0.00 | 0.00 | 1011.5 | |
| 20260504180442 | 21 | 215 | 1.6 | 8.0 | 0.00 | 0.00 | 0.00 | 1011.5 | |
| 20260504175852 | 20 | 240 | 1.6 | 4.8 | 0.00 | 0.00 | 0.00 | 1011.4 | |
| 20260504175742 | 20 | 240 | 1.6 | 4.8 | 0.00 | 0.00 | 0.00 | 1011.4 | |
| 20260504175042 | 20 | 294 | 3.2 | 9.7 | 0.00 | 0.00 | 0.00 | 1011.6 | |
| 20260504174852 | 20 | 276 | 3.2 | 11.3 | 0.00 | 0.00 | 0.00 | 1011.4 | |
| 20260504174342 | 19 | 266 | 1.6 | 4.8 | 0.00 | 0.00 | 0.00 | 1011.5 | |
| 20260504173852 | 18 | 280 | 1.6 | 6.4 | 0.00 | 0.00 | 0.00 | 1011.5 | |
| 20260504173641 | 18 | 280 | 1.6 | 6.4 | 0.00 | 0.00 | 0.00 | 1011.5 | |
| 20260504172941 | 18 | 218 | 3.2 | 8.0 | 0.00 | 0.00 | 0.00 | 1011.4 | |
| 20260504172852 | 18 | 238 | 1.6 | 4.8 | 0.00 | 0.00 | 0.00 | 1011.3 | |
| 20260504172324 | 18 | 198 | 1.6 | 4.8 | 0.00 | 0.00 | 0.00 | 1011.4 | |
| 20260504172243 | 18 | 198 | 1.6 | 4.8 | 0.00 | 0.00 | 0.00 | 1011.4 | |
| 20260504171853 | 17 | 229 | 1.6 | 8.0 | 0.00 | 0.00 | 0.00 | 1011.4 | |
| 20260504171545 | 17 | 229 | 1.6 | 8.0 | 0.00 | 0.00 | 0.00 | 1011.4 | |
| 20260504170843 | 17 | 0 | 0.0 | 0.0 | 0.00 | 0.00 | 0.00 | 1011.3 | |
| 20260504170141 | 17 | 205 | 0.0 | 4.8 | 0.00 | 0.00 | 0.00 | 1011.3 | |
| 20260504150941 | 17 | 0 | 0.0 | 0.0 | 0.00 | 0.00 | 0.00 | 1010.3 | |
| 20260504150851 | 17 | 231 | 0.0 | 1.6 | 0.00 | 0.00 | 0.00 | 1010.1 | |
| 20260504150241 | 17 | 0 | 0.0 | 0.0 | 0.00 | 0.00 | 0.00 | 1009.9 |